sensor_id;sensor_type;location;lat;lon;timestamp;temperature;humidity
26909;DHT22;14477;51.038;4.588;2024-03-25T00:00:13;6.90;99.90
26909;DHT22;14477;51.038;4.588;2024-03-25T00:02:39;6.80;99.90
26909;DHT22;14477;51.038;4.588;2024-03-25T00:05:07;6.80;99.90
26909;DHT22;14477;51.038;4.588;2024-03-25T00:07:38;6.80;99.90
26909;DHT22;14477;51.038;4.588;2024-03-25T00:10:05;6.80;99.90
26909;DHT22;14477;51.038;4.588;2024-03-25T00:12:36;6.80;99.90
26909;DHT22;14477;51.038;4.588;2024-03-25T00:15:02;6.80;99.90
26909;DHT22;14477;51.038;4.588;2024-03-25T00:17:28;6.80;99.90
26909;DHT22;14477;51.038;4.588;2024-03-25T00:19:54;6.80;99.90
26909;DHT22;14477;51.038;4.588;2024-03-25T00:22:21;6.80;99.90
26909;DHT22;14477;51.038;4.588;2024-03-25T00:24:47;6.80;99.90
26909;DHT22;14477;51.038;4.588;2024-03-25T00:27:14;6.80;99.90
26909;DHT22;14477;51.038;4.588;2024-03-25T00:29:40;6.80;99.90
26909;DHT22;14477;51.038;4.588;2024-03-25T00:32:06;6.80;99.90
26909;DHT22;14477;51.038;4.588;2024-03-25T00:34:32;6.80;99.90
26909;DHT22;14477;51.038;4.588;2024-03-25T00:36:59;6.80;99.90
26909;DHT22;14477;51.038;4.588;2024-03-25T00:39:25;6.80;99.90
26909;DHT22;14477;51.038;4.588;2024-03-25T00:41:54;6.80;99.90
26909;DHT22;14477;51.038;4.588;2024-03-25T00:44:20;6.80;99.90
26909;DHT22;14477;51.038;4.588;2024-03-25T00:46:46;6.80;99.90
26909;DHT22;14477;51.038;4.588;2024-03-25T00:49:12;6.80;99.90
26909;DHT22;14477;51.038;4.588;2024-03-25T00:51:38;6.80;99.90
26909;DHT22;14477;51.038;4.588;2024-03-25T00:54:03;6.70;99.90
26909;DHT22;14477;51.038;4.588;2024-03-25T00:56:30;6.70;99.90
26909;DHT22;14477;51.038;4.588;2024-03-25T00:58:56;6.60;99.90
26909;DHT22;14477;51.038;4.588;2024-03-25T01:01:24;6.60;99.90
26909;DHT22;14477;51.038;4.588;2024-03-25T01:03:49;6.60;99.90
26909;DHT22;14477;51.038;4.588;2024-03-25T01:06:15;6.60;99.90
26909;DHT22;14477;51.038;4.588;2024-03-25T01:08:41;6.60;99.90
26909;DHT22;14477;51.038;4.588;2024-03-25T01:11:07;6.50;99.90
26909;DHT22;14477;51.038;4.588;2024-03-25T01:13:32;6.40;99.90
26909;DHT22;14477;51.038;4.588;2024-03-25T01:15:58;6.40;99.90
26909;DHT22;14477;51.038;4.588;2024-03-25T01:18:24;6.40;99.90
26909;DHT22;14477;51.038;4.588;2024-03-25T01:20:49;6.40;99.90
26909;DHT22;14477;51.038;4.588;2024-03-25T01:23:15;6.40;99.90
26909;DHT22;14477;51.038;4.588;2024-03-25T01:25:41;6.30;99.90
26909;DHT22;14477;51.038;4.588;2024-03-25T01:28:07;6.30;99.90
26909;DHT22;14477;51.038;4.588;2024-03-25T01:30:33;6.30;99.90
26909;DHT22;14477;51.038;4.588;2024-03-25T01:33:01;6.20;99.90
26909;DHT22;14477;51.038;4.588;2024-03-25T01:35:27;6.20;99.90
26909;DHT22;14477;51.038;4.588;2024-03-25T01:37:52;5.10;99.90
26909;DHT22;14477;51.038;4.588;2024-03-25T01:40:18;6.10;99.90
26909;DHT22;14477;51.038;4.588;2024-03-25T01:42:57;6.10;99.90
26909;DHT22;14477;51.038;4.588;2024-03-25T01:45:31;6.00;99.90
26909;DHT22;14477;51.038;4.588;2024-03-25T01:47:58;6.00;99.90
26909;DHT22;14477;51.038;4.588;2024-03-25T01:50:24;5.90;99.90
26909;DHT22;14477;51.038;4.588;2024-03-25T01:52:51;5.90;99.90
26909;DHT22;14477;51.038;4.588;2024-03-25T01:55:20;5.90;99.90
26909;DHT22;14477;51.038;4.588;2024-03-25T01:57:47;5.80;99.90
26909;DHT22;14477;51.038;4.588;2024-03-25T02:00:14;5.80;99.90
26909;DHT22;14477;51.038;4.588;2024-03-25T02:02:42;5.70;99.90
26909;DHT22;14477;51.038;4.588;2024-03-25T02:05:10;5.70;99.90
26909;DHT22;14477;51.038;4.588;2024-03-25T02:07:36;5.70;99.90
26909;DHT22;14477;51.038;4.588;2024-03-25T02:10:03;5.70;99.90
26909;DHT22;14477;51.038;4.588;2024-03-25T02:12:31;5.60;99.90
26909;DHT22;14477;51.038;4.588;2024-03-25T02:14:57;5.60;99.90
26909;DHT22;14477;51.038;4.588;2024-03-25T02:17:24;5.50;99.90
26909;DHT22;14477;51.038;4.588;2024-03-25T02:19:50;5.60;99.90
26909;DHT22;14477;51.038;4.588;2024-03-25T02:22:16;5.50;99.90
26909;DHT22;14477;51.038;4.588;2024-03-25T02:24:43;5.50;99.90
26909;DHT22;14477;51.038;4.588;2024-03-25T02:27:10;5.50;99.90
26909;DHT22;14477;51.038;4.588;2024-03-25T02:29:40;5.40;99.90
26909;DHT22;14477;51.038;4.588;2024-03-25T02:32:07;5.40;99.90
26909;DHT22;14477;51.038;4.588;2024-03-25T02:34:37;3.40;99.90
26909;DHT22;14477;51.038;4.588;2024-03-25T02:37:03;5.40;99.90
26909;DHT22;14477;51.038;4.588;2024-03-25T02:39:29;5.40;99.90
26909;DHT22;14477;51.038;4.588;2024-03-25T02:41:55;5.30;99.90
26909;DHT22;14477;51.038;4.588;2024-03-25T02:44:22;5.30;99.90
26909;DHT22;14477;51.038;4.588;2024-03-25T02:46:48;5.40;99.90
26909;DHT22;14477;51.038;4.588;2024-03-25T02:49:14;5.30;99.90
26909;DHT22;14477;51.038;4.588;2024-03-25T02:51:40;5.30;99.90
26909;DHT22;14477;51.038;4.588;2024-03-25T02:54:06;5.20;99.90
26909;DHT22;14477;51.038;4.588;2024-03-25T02:56:33;7.70;99.90
26909;DHT22;14477;51.038;4.588;2024-03-25T02:58:59;5.10;99.90
26909;DHT22;14477;51.038;4.588;2024-03-25T03:01:25;5.20;99.90
26909;DHT22;14477;51.038;4.588;2024-03-25T03:03:50;5.10;99.90
26909;DHT22;14477;51.038;4.588;2024-03-25T03:06:16;5.10;99.90
26909;DHT22;14477;51.038;4.588;2024-03-25T03:08:42;5.10;99.90
26909;DHT22;14477;51.038;4.588;2024-03-25T03:11:07;5.00;99.90
26909;DHT22;14477;51.038;4.588;2024-03-25T03:13:33;5.00;99.90
26909;DHT22;14477;51.038;4.588;2024-03-25T03:15:59;5.00;99.90
26909;DHT22;14477;51.038;4.588;2024-03-25T03:18:24;5.00;99.90
26909;DHT22;14477;51.038;4.588;2024-03-25T03:20:50;4.90;99.90
26909;DHT22;14477;51.038;4.588;2024-03-25T03:23:16;5.00;99.90
26909;DHT22;14477;51.038;4.588;2024-03-25T03:25:42;4.90;99.90
26909;DHT22;14477;51.038;4.588;2024-03-25T03:28:08;4.90;99.90
26909;DHT22;14477;51.038;4.588;2024-03-25T03:30:34;4.80;99.90
26909;DHT22;14477;51.038;4.588;2024-03-25T03:33:00;4.80;99.90
26909;DHT22;14477;51.038;4.588;2024-03-25T03:35:26;4.80;99.90
26909;DHT22;14477;51.038;4.588;2024-03-25T03:37:51;4.80;99.90
26909;DHT22;14477;51.038;4.588;2024-03-25T03:40:17;4.80;99.90
26909;DHT22;14477;51.038;4.588;2024-03-25T03:42:43;4.80;99.90
26909;DHT22;14477;51.038;4.588;2024-03-25T03:45:09;4.70;99.90
26909;DHT22;14477;51.038;4.588;2024-03-25T03:47:34;4.70;99.90
26909;DHT22;14477;51.038;4.588;2024-03-25T03:50:00;4.70;99.90
26909;DHT22;14477;51.038;4.588;2024-03-25T03:52:26;4.60;99.90
26909;DHT22;14477;51.038;4.588;2024-03-25T03:54:52;4.60;99.90
26909;DHT22;14477;51.038;4.588;2024-03-25T03:57:18;4.60;99.90
26909;DHT22;14477;51.038;4.588;2024-03-25T03:59:43;4.60;99.90
26909;DHT22;14477;51.038;4.588;2024-03-25T04:02:09;4.50;99.90
26909;DHT22;14477;51.038;4.588;2024-03-25T04:04:35;4.50;99.90
26909;DHT22;14477;51.038;4.588;2024-03-25T04:07:02;4.50;99.90
26909;DHT22;14477;51.038;4.588;2024-03-25T04:09:27;4.50;99.90
26909;DHT22;14477;51.038;4.588;2024-03-25T04:11:54;4.50;99.90
26909;DHT22;14477;51.038;4.588;2024-03-25T04:14:20;4.50;99.90
26909;DHT22;14477;51.038;4.588;2024-03-25T04:16:46;2.60;99.90
26909;DHT22;14477;51.038;4.588;2024-03-25T04:19:12;4.40;99.90
26909;DHT22;14477;51.038;4.588;2024-03-25T04:21:38;4.40;99.90
26909;DHT22;14477;51.038;4.588;2024-03-25T04:24:05;4.40;99.90
26909;DHT22;14477;51.038;4.588;2024-03-25T04:26:31;4.40;99.90
26909;DHT22;14477;51.038;4.588;2024-03-25T04:28:57;4.40;99.90
26909;DHT22;14477;51.038;4.588;2024-03-25T04:31:23;4.40;99.90
26909;DHT22;14477;51.038;4.588;2024-03-25T04:33:48;4.40;99.90
26909;DHT22;14477;51.038;4.588;2024-03-25T04:36:14;4.30;99.90
26909;DHT22;14477;51.038;4.588;2024-03-25T04:38:40;2.60;99.90
26909;DHT22;14477;51.038;4.588;2024-03-25T04:41:05;4.30;99.90
26909;DHT22;14477;51.038;4.588;2024-03-25T04:43:31;4.30;99.90
26909;DHT22;14477;51.038;4.588;2024-03-25T04:46:00;4.30;99.90
26909;DHT22;14477;51.038;4.588;2024-03-25T04:48:26;5.70;99.90
26909;DHT22;14477;51.038;4.588;2024-03-25T04:50:52;4.20;99.90
26909;DHT22;14477;51.038;4.588;2024-03-25T04:53:17;4.20;99.90
26909;DHT22;14477;51.038;4.588;2024-03-25T04:55:43;4.20;99.90
26909;DHT22;14477;51.038;4.588;2024-03-25T04:58:09;4.20;99.90
26909;DHT22;14477;51.038;4.588;2024-03-25T05:00:34;4.20;99.90
26909;DHT22;14477;51.038;4.588;2024-03-25T05:03:00;4.20;99.90
26909;DHT22;14477;51.038;4.588;2024-03-25T05:05:26;4.10;99.90
26909;DHT22;14477;51.038;4.588;2024-03-25T05:07:51;4.20;99.90
26909;DHT22;14477;51.038;4.588;2024-03-25T05:10:18;4.10;99.90
26909;DHT22;14477;51.038;4.588;2024-03-25T05:12:44;4.10;99.90
26909;DHT22;14477;51.038;4.588;2024-03-25T05:15:09;4.10;99.90
26909;DHT22;14477;51.038;4.588;2024-03-25T05:17:36;4.10;99.90
26909;DHT22;14477;51.038;4.588;2024-03-25T05:20:02;4.10;99.90
26909;DHT22;14477;51.038;4.588;2024-03-25T05:22:30;4.10;99.90
26909;DHT22;14477;51.038;4.588;2024-03-25T05:24:56;4.00;99.90
26909;DHT22;14477;51.038;4.588;2024-03-25T05:27:22;4.10;99.90
26909;DHT22;14477;51.038;4.588;2024-03-25T05:29:49;4.00;99.90
26909;DHT22;14477;51.038;4.588;2024-03-25T05:32:15;4.10;99.90
26909;DHT22;14477;51.038;4.588;2024-03-25T05:34:42;4.10;99.90
26909;DHT22;14477;51.038;4.588;2024-03-25T05:37:08;4.00;99.90
26909;DHT22;14477;51.038;4.588;2024-03-25T05:39:33;4.20;99.90
26909;DHT22;14477;51.038;4.588;2024-03-25T05:41:59;4.00;99.90
26909;DHT22;14477;51.038;4.588;2024-03-25T05:44:25;4.10;99.90
26909;DHT22;14477;51.038;4.588;2024-03-25T05:46:50;4.10;99.90
26909;DHT22;14477;51.038;4.588;2024-03-25T05:49:16;4.10;99.90
26909;DHT22;14477;51.038;4.588;2024-03-25T05:51:42;4.10;99.90
26909;DHT22;14477;51.038;4.588;2024-03-25T05:54:07;4.10;99.90
26909;DHT22;14477;51.038;4.588;2024-03-25T05:56:33;2.00;99.90
26909;DHT22;14477;51.038;4.588;2024-03-25T05:59:00;4.20;99.90
26909;DHT22;14477;51.038;4.588;2024-03-25T06:01:26;4.30;99.90
26909;DHT22;14477;51.038;4.588;2024-03-25T06:03:53;3.90;99.90
26909;DHT22;14477;51.038;4.588;2024-03-25T06:06:18;4.30;99.90
26909;DHT22;14477;51.038;4.588;2024-03-25T06:08:44;3.90;99.90
26909;DHT22;14477;51.038;4.588;2024-03-25T06:11:10;4.40;99.90
26909;DHT22;14477;51.038;4.588;2024-03-25T06:13:36;4.50;99.90
26909;DHT22;14477;51.038;4.588;2024-03-25T06:16:02;3.50;99.90
26909;DHT22;14477;51.038;4.588;2024-03-25T06:18:28;4.60;99.90
26909;DHT22;14477;51.038;4.588;2024-03-25T06:20:53;4.70;99.90
26909;DHT22;14477;51.038;4.588;2024-03-25T06:23:27;4.80;99.90
26909;DHT22;14477;51.038;4.588;2024-03-25T06:25:54;4.90;99.90
26909;DHT22;14477;51.038;4.588;2024-03-25T06:28:20;4.90;99.90
26909;DHT22;14477;51.038;4.588;2024-03-25T06:30:47;5.00;99.90
26909;DHT22;14477;51.038;4.588;2024-03-25T06:33:32;5.20;99.90
26909;DHT22;14477;51.038;4.588;2024-03-25T06:36:17;5.30;99.90
26909;DHT22;14477;51.038;4.588;2024-03-25T06:38:43;5.40;99.90
26909;DHT22;14477;51.038;4.588;2024-03-25T06:41:08;5.50;99.90
26909;DHT22;14477;51.038;4.588;2024-03-25T06:43:35;5.60;99.90
26909;DHT22;14477;51.038;4.588;2024-03-25T06:46:01;5.70;99.90
26909;DHT22;14477;51.038;4.588;2024-03-25T06:48:27;5.80;99.90
26909;DHT22;14477;51.038;4.588;2024-03-25T06:50:57;5.90;99.90
26909;DHT22;14477;51.038;4.588;2024-03-25T06:53:24;6.10;99.90
26909;DHT22;14477;51.038;4.588;2024-03-25T06:55:54;6.20;99.90
26909;DHT22;14477;51.038;4.588;2024-03-25T06:58:21;6.30;99.90
26909;DHT22;14477;51.038;4.588;2024-03-25T07:00:47;5.40;99.90
26909;DHT22;14477;51.038;4.588;2024-03-25T07:03:17;6.70;99.90
26909;DHT22;14477;51.038;4.588;2024-03-25T07:05:51;6.90;99.90
26909;DHT22;14477;51.038;4.588;2024-03-25T07:08:20;6.60;99.90
26909;DHT22;14477;51.038;4.588;2024-03-25T07:10:46;6.70;99.90
26909;DHT22;14477;51.038;4.588;2024-03-25T07:13:12;6.90;99.90
26909;DHT22;14477;51.038;4.588;2024-03-25T07:15:39;6.00;99.90
26909;DHT22;14477;51.038;4.588;2024-03-25T07:18:05;7.00;99.90
26909;DHT22;14477;51.038;4.588;2024-03-25T07:20:31;7.10;99.90
26909;DHT22;14477;51.038;4.588;2024-03-25T07:22:57;7.30;99.90
26909;DHT22;14477;51.038;4.588;2024-03-25T07:25:24;7.40;99.90
26909;DHT22;14477;51.038;4.588;2024-03-25T07:27:50;7.60;99.90
26909;DHT22;14477;51.038;4.588;2024-03-25T07:30:16;7.70;99.90
26909;DHT22;14477;51.038;4.588;2024-03-25T07:32:42;7.90;99.90
26909;DHT22;14477;51.038;4.588;2024-03-25T07:35:10;8.10;99.90
26909;DHT22;14477;51.038;4.588;2024-03-25T07:37:36;8.30;99.90
26909;DHT22;14477;51.038;4.588;2024-03-25T07:40:02;8.50;99.90
26909;DHT22;14477;51.038;4.588;2024-03-25T07:42:29;8.80;99.90
26909;DHT22;14477;51.038;4.588;2024-03-25T07:44:55;9.10;99.90
26909;DHT22;14477;51.038;4.588;2024-03-25T07:47:21;9.40;99.90
26909;DHT22;14477;51.038;4.588;2024-03-25T07:49:47;9.70;99.90
26909;DHT22;14477;51.038;4.588;2024-03-25T07:52:13;10.00;99.90
26909;DHT22;14477;51.038;4.588;2024-03-25T07:54:39;10.30;99.90
26909;DHT22;14477;51.038;4.588;2024-03-25T07:57:05;10.40;99.90
26909;DHT22;14477;51.038;4.588;2024-03-25T07:59:30;10.60;99.90
26909;DHT22;14477;51.038;4.588;2024-03-25T08:01:56;10.80;99.90
26909;DHT22;14477;51.038;4.588;2024-03-25T08:04:22;10.90;99.90
26909;DHT22;14477;51.038;4.588;2024-03-25T08:06:48;11.00;99.90
26909;DHT22;14477;51.038;4.588;2024-03-25T08:09:14;11.10;99.90
26909;DHT22;14477;51.038;4.588;2024-03-25T08:11:41;11.10;99.90
26909;DHT22;14477;51.038;4.588;2024-03-25T08:14:09;11.20;99.90
26909;DHT22;14477;51.038;4.588;2024-03-25T08:16:35;11.30;99.90
26909;DHT22;14477;51.038;4.588;2024-03-25T08:19:01;11.40;99.90
26909;DHT22;14477;51.038;4.588;2024-03-25T08:21:27;11.50;99.90
26909;DHT22;14477;51.038;4.588;2024-03-25T08:23:52;11.60;99.90
26909;DHT22;14477;51.038;4.588;2024-03-25T08:26:18;11.70;99.90
26909;DHT22;14477;51.038;4.588;2024-03-25T08:28:44;11.90;99.90
26909;DHT22;14477;51.038;4.588;2024-03-25T08:31:09;12.10;99.90
26909;DHT22;14477;51.038;4.588;2024-03-25T08:33:35;12.40;99.90
26909;DHT22;14477;51.038;4.588;2024-03-25T08:36:01;12.80;99.90
26909;DHT22;14477;51.038;4.588;2024-03-25T08:38:27;13.20;99.90
26909;DHT22;14477;51.038;4.588;2024-03-25T08:40:53;13.60;99.90
26909;DHT22;14477;51.038;4.588;2024-03-25T08:43:19;14.10;99.90
26909;DHT22;14477;51.038;4.588;2024-03-25T08:45:45;14.60;99.90
26909;DHT22;14477;51.038;4.588;2024-03-25T08:48:11;15.00;99.90
26909;DHT22;14477;51.038;4.588;2024-03-25T08:50:37;15.60;99.90
26909;DHT22;14477;51.038;4.588;2024-03-25T08:53:04;16.00;99.90
26909;DHT22;14477;51.038;4.588;2024-03-25T08:55:30;16.50;99.90
26909;DHT22;14477;51.038;4.588;2024-03-25T08:57:59;16.90;99.90
26909;DHT22;14477;51.038;4.588;2024-03-25T09:00:28;17.30;99.90
26909;DHT22;14477;51.038;4.588;2024-03-25T09:02:54;17.70;99.90
26909;DHT22;14477;51.038;4.588;2024-03-25T09:05:21;18.10;99.90
26909;DHT22;14477;51.038;4.588;2024-03-25T09:07:50;18.50;99.90
26909;DHT22;14477;51.038;4.588;2024-03-25T09:10:18;18.80;99.90
26909;DHT22;14477;51.038;4.588;2024-03-25T09:13:02;19.00;99.90
26909;DHT22;14477;51.038;4.588;2024-03-25T09:15:29;19.30;99.90
26909;DHT22;14477;51.038;4.588;2024-03-25T09:17:54;19.50;99.90
26909;DHT22;14477;51.038;4.588;2024-03-25T09:20:20;19.60;99.90
26909;DHT22;14477;51.038;4.588;2024-03-25T09:22:47;19.70;99.90
26909;DHT22;14477;51.038;4.588;2024-03-25T09:25:16;19.70;99.90
26909;DHT22;14477;51.038;4.588;2024-03-25T09:27:51;19.80;99.90
26909;DHT22;14477;51.038;4.588;2024-03-25T09:30:18;19.90;99.90
26909;DHT22;14477;51.038;4.588;2024-03-25T09:32:44;20.00;99.90
26909;DHT22;14477;51.038;4.588;2024-03-25T09:35:10;20.10;99.90
26909;DHT22;14477;51.038;4.588;2024-03-25T09:37:36;20.30;99.90
26909;DHT22;14477;51.038;4.588;2024-03-25T09:40:03;20.30;99.90
26909;DHT22;14477;51.038;4.588;2024-03-25T09:42:49;20.50;99.90
26909;DHT22;14477;51.038;4.588;2024-03-25T09:45:18;20.60;99.90
26909;DHT22;14477;51.038;4.588;2024-03-25T09:47:47;20.70;99.90
26909;DHT22;14477;51.038;4.588;2024-03-25T09:50:14;20.80;99.90
26909;DHT22;14477;51.038;4.588;2024-03-25T09:52:51;21.00;99.90
26909;DHT22;14477;51.038;4.588;2024-03-25T09:55:17;21.10;99.90
26909;DHT22;14477;51.038;4.588;2024-03-25T09:57:44;21.20;99.90
26909;DHT22;14477;51.038;4.588;2024-03-25T10:00:10;21.30;99.90
26909;DHT22;14477;51.038;4.588;2024-03-25T10:02:41;21.40;99.90
26909;DHT22;14477;51.038;4.588;2024-03-25T10:05:07;21.60;99.90
26909;DHT22;14477;51.038;4.588;2024-03-25T10:07:34;21.60;99.90
26909;DHT22;14477;51.038;4.588;2024-03-25T10:10:03;21.70;99.90
26909;DHT22;14477;51.038;4.588;2024-03-25T10:12:30;21.70;99.90
26909;DHT22;14477;51.038;4.588;2024-03-25T10:14:56;21.70;99.90
26909;DHT22;14477;51.038;4.588;2024-03-25T10:17:22;21.80;99.90
26909;DHT22;14477;51.038;4.588;2024-03-25T10:19:48;21.80;99.90
26909;DHT22;14477;51.038;4.588;2024-03-25T10:22:14;21.90;99.90
26909;DHT22;14477;51.038;4.588;2024-03-25T10:24:44;22.00;99.90
26909;DHT22;14477;51.038;4.588;2024-03-25T10:27:23;22.10;99.90
26909;DHT22;14477;51.038;4.588;2024-03-25T10:29:53;22.10;99.90
26909;DHT22;14477;51.038;4.588;2024-03-25T10:32:22;22.20;99.90
26909;DHT22;14477;51.038;4.588;2024-03-25T10:34:54;22.30;99.90
26909;DHT22;14477;51.038;4.588;2024-03-25T10:37:21;22.50;99.90
26909;DHT22;14477;51.038;4.588;2024-03-25T10:39:49;22.50;99.90
26909;DHT22;14477;51.038;4.588;2024-03-25T10:42:21;22.60;99.90
26909;DHT22;14477;51.038;4.588;2024-03-25T10:44:48;22.80;99.90
26909;DHT22;14477;51.038;4.588;2024-03-25T10:47:21;23.00;99.90
26909;DHT22;14477;51.038;4.588;2024-03-25T10:49:51;23.10;99.90
26909;DHT22;14477;51.038;4.588;2024-03-25T10:52:22;23.30;99.90
26909;DHT22;14477;51.038;4.588;2024-03-25T10:54:49;23.50;99.90
26909;DHT22;14477;51.038;4.588;2024-03-25T10:57:16;23.70;99.90
26909;DHT22;14477;51.038;4.588;2024-03-25T10:59:45;23.90;99.90
26909;DHT22;14477;51.038;4.588;2024-03-25T11:02:11;24.10;99.90
26909;DHT22;14477;51.038;4.588;2024-03-25T11:04:38;24.20;99.90
26909;DHT22;14477;51.038;4.588;2024-03-25T11:07:13;24.30;99.90
26909;DHT22;14477;51.038;4.588;2024-03-25T11:09:40;24.40;99.90
26909;DHT22;14477;51.038;4.588;2024-03-25T11:12:09;24.50;99.90
26909;DHT22;14477;51.038;4.588;2024-03-25T11:14:35;24.60;99.90
26909;DHT22;14477;51.038;4.588;2024-03-25T11:17:01;24.60;99.90
26909;DHT22;14477;51.038;4.588;2024-03-25T11:19:29;24.30;99.90
26909;DHT22;14477;51.038;4.588;2024-03-25T11:22:06;24.00;99.90
26909;DHT22;14477;51.038;4.588;2024-03-25T11:24:32;23.70;99.90
26909;DHT22;14477;51.038;4.588;2024-03-25T11:26:58;23.30;99.90
26909;DHT22;14477;51.038;4.588;2024-03-25T11:29:26;23.00;99.90
26909;DHT22;14477;51.038;4.588;2024-03-25T11:31:53;22.90;99.90
26909;DHT22;14477;51.038;4.588;2024-03-25T11:34:19;22.90;99.90
26909;DHT22;14477;51.038;4.588;2024-03-25T11:36:45;22.80;99.90
26909;DHT22;14477;51.038;4.588;2024-03-25T11:39:13;22.70;99.90
26909;DHT22;14477;51.038;4.588;2024-03-25T11:41:42;22.60;99.90
26909;DHT22;14477;51.038;4.588;2024-03-25T11:44:09;22.60;99.90
26909;DHT22;14477;51.038;4.588;2024-03-25T11:46:39;22.70;99.90
26909;DHT22;14477;51.038;4.588;2024-03-25T11:49:12;22.60;99.90
26909;DHT22;14477;51.038;4.588;2024-03-25T11:51:37;22.50;99.90
26909;DHT22;14477;51.038;4.588;2024-03-25T11:54:06;22.40;99.90
26909;DHT22;14477;51.038;4.588;2024-03-25T11:56:33;22.40;99.90
26909;DHT22;14477;51.038;4.588;2024-03-25T11:59:02;22.40;99.90
26909;DHT22;14477;51.038;4.588;2024-03-25T12:01:33;22.40;99.90
26909;DHT22;14477;51.038;4.588;2024-03-25T12:04:12;22.20;99.90
26909;DHT22;14477;51.038;4.588;2024-03-25T12:06:38;21.80;99.90
26909;DHT22;14477;51.038;4.588;2024-03-25T12:09:04;21.60;99.90
26909;DHT22;14477;51.038;4.588;2024-03-25T12:11:48;21.30;99.90
26909;DHT22;14477;51.038;4.588;2024-03-25T12:14:14;21.00;99.90
26909;DHT22;14477;51.038;4.588;2024-03-25T12:16:41;20.80;99.90
26909;DHT22;14477;51.038;4.588;2024-03-25T12:19:07;20.80;99.90
26909;DHT22;14477;51.038;4.588;2024-03-25T12:21:33;21.10;99.90
26909;DHT22;14477;51.038;4.588;2024-03-25T12:23:59;21.40;99.90
26909;DHT22;14477;51.038;4.588;2024-03-25T12:26:25;21.80;99.90
26909;DHT22;14477;51.038;4.588;2024-03-25T12:28:51;22.20;99.90
26909;DHT22;14477;51.038;4.588;2024-03-25T12:31:17;22.50;99.90
26909;DHT22;14477;51.038;4.588;2024-03-25T12:33:43;22.60;99.90
26909;DHT22;14477;51.038;4.588;2024-03-25T12:36:12;22.70;99.90
26909;DHT22;14477;51.038;4.588;2024-03-25T12:38:37;22.80;99.90
26909;DHT22;14477;51.038;4.588;2024-03-25T12:41:05;22.90;99.90
26909;DHT22;14477;51.038;4.588;2024-03-25T12:43:32;23.00;99.90
26909;DHT22;14477;51.038;4.588;2024-03-25T12:45:59;23.10;99.90
26909;DHT22;14477;51.038;4.588;2024-03-25T12:48:25;23.10;99.90
26909;DHT22;14477;51.038;4.588;2024-03-25T12:50:51;23.10;99.90
26909;DHT22;14477;51.038;4.588;2024-03-25T12:53:18;23.10;99.90
26909;DHT22;14477;51.038;4.588;2024-03-25T12:55:47;23.10;99.90
26909;DHT22;14477;51.038;4.588;2024-03-25T12:58:14;23.30;99.90
26909;DHT22;14477;51.038;4.588;2024-03-25T13:00:40;23.50;99.90
26909;DHT22;14477;51.038;4.588;2024-03-25T13:03:07;23.60;99.90
26909;DHT22;14477;51.038;4.588;2024-03-25T13:05:34;23.80;99.90
26909;DHT22;14477;51.038;4.588;2024-03-25T13:08:00;23.90;99.90
26909;DHT22;14477;51.038;4.588;2024-03-25T13:10:27;24.10;99.90
26909;DHT22;14477;51.038;4.588;2024-03-25T13:12:53;24.20;99.90
26909;DHT22;14477;51.038;4.588;2024-03-25T13:15:19;24.30;99.90
26909;DHT22;14477;51.038;4.588;2024-03-25T13:17:44;24.40;99.90
26909;DHT22;14477;51.038;4.588;2024-03-25T13:20:10;24.40;99.90
26909;DHT22;14477;51.038;4.588;2024-03-25T13:22:36;24.40;99.90
26909;DHT22;14477;51.038;4.588;2024-03-25T13:25:04;24.30;99.90
26909;DHT22;14477;51.038;4.588;2024-03-25T13:27:30;24.30;99.90
26909;DHT22;14477;51.038;4.588;2024-03-25T13:29:56;24.40;99.90
26909;DHT22;14477;51.038;4.588;2024-03-25T13:32:22;24.40;99.90
26909;DHT22;14477;51.038;4.588;2024-03-25T13:34:49;24.20;99.90
26909;DHT22;14477;51.038;4.588;2024-03-25T13:37:15;24.10;99.90
26909;DHT22;14477;51.038;4.588;2024-03-25T13:39:41;23.80;99.90
26909;DHT22;14477;51.038;4.588;2024-03-25T13:42:07;23.50;99.90
26909;DHT22;14477;51.038;4.588;2024-03-25T13:44:32;23.30;99.90
26909;DHT22;14477;51.038;4.588;2024-03-25T13:46:58;23.00;99.90
26909;DHT22;14477;51.038;4.588;2024-03-25T13:49:24;22.90;99.90
26909;DHT22;14477;51.038;4.588;2024-03-25T13:51:56;22.70;99.90
26909;DHT22;14477;51.038;4.588;2024-03-25T13:54:27;22.60;99.90
26909;DHT22;14477;51.038;4.588;2024-03-25T13:56:52;22.40;99.90
26909;DHT22;14477;51.038;4.588;2024-03-25T13:59:18;22.10;99.90
26909;DHT22;14477;51.038;4.588;2024-03-25T14:01:44;21.90;99.90
26909;DHT22;14477;51.038;4.588;2024-03-25T14:04:10;21.70;99.90
26909;DHT22;14477;51.038;4.588;2024-03-25T14:06:36;21.40;99.90
26909;DHT22;14477;51.038;4.588;2024-03-25T14:09:03;21.20;99.90
26909;DHT22;14477;51.038;4.588;2024-03-25T14:11:31;21.00;99.90
26909;DHT22;14477;51.038;4.588;2024-03-25T14:13:57;20.90;99.90
26909;DHT22;14477;51.038;4.588;2024-03-25T14:16:23;20.80;99.90
26909;DHT22;14477;51.038;4.588;2024-03-25T14:18:48;20.60;99.90
26909;DHT22;14477;51.038;4.588;2024-03-25T14:21:14;20.50;99.90
26909;DHT22;14477;51.038;4.588;2024-03-25T14:23:40;20.40;99.90
26909;DHT22;14477;51.038;4.588;2024-03-25T14:26:15;20.20;99.90
26909;DHT22;14477;51.038;4.588;2024-03-25T14:28:41;20.10;99.90
26909;DHT22;14477;51.038;4.588;2024-03-25T14:31:06;20.10;99.90
26909;DHT22;14477;51.038;4.588;2024-03-25T14:33:32;20.10;99.90
26909;DHT22;14477;51.038;4.588;2024-03-25T14:35:58;20.00;99.90
26909;DHT22;14477;51.038;4.588;2024-03-25T14:38:24;20.00;99.90
26909;DHT22;14477;51.038;4.588;2024-03-25T14:40:50;20.00;99.90
26909;DHT22;14477;51.038;4.588;2024-03-25T14:43:15;20.00;99.90
26909;DHT22;14477;51.038;4.588;2024-03-25T14:45:45;20.00;99.90
26909;DHT22;14477;51.038;4.588;2024-03-25T14:48:10;20.00;99.90
26909;DHT22;14477;51.038;4.588;2024-03-25T14:50:36;20.00;99.90
26909;DHT22;14477;51.038;4.588;2024-03-25T14:53:02;20.00;99.90
26909;DHT22;14477;51.038;4.588;2024-03-25T14:55:29;20.00;99.90
26909;DHT22;14477;51.038;4.588;2024-03-25T14:57:55;20.00;99.90
26909;DHT22;14477;51.038;4.588;2024-03-25T15:00:21;20.00;99.90
26909;DHT22;14477;51.038;4.588;2024-03-25T15:02:53;20.00;99.90
26909;DHT22;14477;51.038;4.588;2024-03-25T15:05:18;19.90;99.90
26909;DHT22;14477;51.038;4.588;2024-03-25T15:07:46;19.90;99.90
26909;DHT22;14477;51.038;4.588;2024-03-25T15:10:11;19.80;99.90
26909;DHT22;14477;51.038;4.588;2024-03-25T15:12:40;19.70;99.90
26909;DHT22;14477;51.038;4.588;2024-03-25T15:15:09;20.50;99.90
26909;DHT22;14477;51.038;4.588;2024-03-25T15:17:36;19.60;99.90
26909;DHT22;14477;51.038;4.588;2024-03-25T15:20:04;19.60;99.90
26909;DHT22;14477;51.038;4.588;2024-03-25T15:22:31;19.50;99.90
26909;DHT22;14477;51.038;4.588;2024-03-25T15:24:56;19.50;99.90
26909;DHT22;14477;51.038;4.588;2024-03-25T15:27:22;19.40;99.90
26909;DHT22;14477;51.038;4.588;2024-03-25T15:29:49;19.40;99.90
26909;DHT22;14477;51.038;4.588;2024-03-25T15:32:15;19.30;99.90
26909;DHT22;14477;51.038;4.588;2024-03-25T15:34:41;19.30;99.90